createdAt,value
2017-04-08T00:00:37.504Z,21.2
2017-04-08T00:01:45.588Z,21.3
2017-04-08T00:02:53.684Z,21.2
2017-04-08T00:04:01.761Z,21.3
2017-04-08T00:05:09.849Z,21.3
2017-04-08T00:06:17.935Z,21.2
2017-04-08T00:07:26.021Z,21.2
2017-04-08T00:08:34.110Z,21.2
2017-04-08T00:09:42.428Z,21.3
2017-04-08T00:10:50.287Z,21.3
2017-04-08T00:11:58.374Z,21.3
2017-04-08T00:13:06.460Z,21.3
2017-04-08T00:14:14.552Z,21.2
2017-04-08T00:15:22.652Z,21.3
2017-04-08T00:16:30.731Z,21.3
2017-04-08T00:17:38.820Z,21.3
2017-04-08T00:18:46.905Z,21.2
2017-04-08T00:19:54.990Z,21.3
2017-04-08T00:21:03.074Z,21.3
2017-04-08T00:22:11.160Z,21.3
2017-04-08T00:23:19.252Z,21.3
2017-04-08T00:24:27.429Z,21.3
2017-04-08T00:25:35.448Z,21.3
2017-04-08T00:26:45.474Z,21.3
2017-04-08T00:27:51.592Z,21.3
2017-04-08T00:28:59.676Z,21.3
2017-04-08T00:30:07.769Z,21.3
2017-04-08T00:31:15.853Z,21.2
2017-04-08T00:32:23.936Z,21.3
2017-04-08T00:33:32.048Z,21.3
2017-04-08T00:34:40.467Z,21.3
2017-04-08T00:35:48.548Z,21.3
2017-04-08T00:36:56.275Z,21.3
2017-04-08T00:38:04.366Z,21.3
2017-04-08T00:39:12.450Z,21.3
2017-04-08T00:40:20.542Z,21.2
2017-04-08T00:41:28.627Z,21.3
2017-04-08T00:42:37.255Z,21.2
2017-04-08T00:43:44.793Z,21.3
2017-04-08T00:44:52.876Z,21.3
2017-04-08T00:46:00.965Z,21.2
2017-04-08T00:47:09.052Z,21.3
2017-04-08T00:48:17.132Z,21.3
2017-04-08T00:49:25.222Z,21.2
2017-04-08T00:50:33.307Z,21.3
2017-04-08T00:51:41.390Z,21.2
2017-04-08T00:52:49.480Z,21.3
2017-04-08T00:53:57.584Z,21.3
2017-04-08T00:55:05.663Z,21.2
2017-04-08T00:56:13.739Z,21.2
2017-04-08T00:57:21.829Z,21.2
2017-04-08T00:58:29.915Z,21.3
2017-04-08T00:59:38.000Z,21.3
2017-04-08T01:00:46.441Z,21.3
2017-04-08T01:01:54.175Z,21.2
2017-04-08T01:03:02.259Z,21.2
2017-04-08T01:04:10.351Z,21.2
2017-04-08T01:05:18.432Z,21.3
2017-04-08T01:06:26.516Z,21.2
2017-04-08T01:07:34.601Z,21.3
2017-04-08T01:08:42.686Z,21.3
2017-04-08T01:09:50.772Z,21.3
2017-04-08T01:10:58.865Z,21.3
2017-04-08T01:12:06.940Z,21.3
2017-04-08T01:13:15.031Z,21.3
2017-04-08T01:14:23.114Z,21.3
2017-04-08T01:15:31.199Z,21.2
2017-04-08T01:16:39.314Z,21.3
2017-04-08T01:17:47.378Z,21.3
2017-04-08T01:18:55.459Z,21.3
2017-04-08T01:20:03.545Z,21.3
2017-04-08T01:21:11.724Z,21.3
2017-04-08T01:22:19.722Z,21.3
2017-04-08T01:23:27.808Z,21.3
2017-04-08T01:24:35.899Z,21.3
2017-04-08T01:25:43.984Z,21.3
2017-04-08T01:26:52.081Z,21.3
2017-04-08T01:28:00.246Z,21.3
2017-04-08T01:29:08.336Z,21.4
2017-04-08T01:30:16.332Z,21.3
2017-04-08T01:31:24.413Z,21.3
2017-04-08T01:32:32.504Z,21.3
2017-04-08T01:33:40.645Z,21.3
2017-04-08T01:34:48.688Z,21.4
2017-04-08T01:35:56.768Z,21.4
2017-04-08T01:37:04.853Z,21.4
2017-04-08T01:38:12.936Z,21.3
2017-04-08T01:39:21.022Z,21.4
2017-04-08T01:40:29.117Z,21.3
2017-04-08T01:41:37.207Z,21.3
2017-04-08T01:42:45.284Z,21.4
2017-04-08T01:43:53.366Z,21.3
2017-04-08T01:45:01.529Z,21.3
2017-04-08T01:46:09.548Z,21.4
2017-04-08T01:47:17.629Z,21.4
2017-04-08T01:48:25.717Z,21.4
2017-04-08T01:49:33.805Z,21.4
2017-04-08T01:50:41.888Z,21.4
2017-04-08T01:51:49.976Z,21.4
2017-04-08T01:52:58.065Z,21.4
2017-04-08T01:54:06.149Z,21.4
2017-04-08T01:55:14.236Z,21.4
2017-04-08T01:56:22.323Z,21.4
2017-04-08T01:57:30.409Z,21.4
2017-04-08T01:58:38.496Z,21.4
2017-04-08T01:59:46.581Z,21.4
2017-04-08T02:00:54.669Z,21.4
2017-04-08T02:02:02.754Z,21.4
2017-04-08T02:03:10.837Z,21.4
2017-04-08T02:04:18.929Z,21.4
2017-04-08T02:05:27.021Z,21.4
2017-04-08T02:06:35.111Z,21.4
2017-04-08T02:07:43.196Z,21.4
2017-04-08T02:08:51.288Z,21.4
2017-04-08T02:09:59.375Z,21.4
2017-04-08T02:11:07.459Z,21.4
2017-04-08T02:12:15.552Z,21.4
2017-04-08T02:13:23.640Z,21.4
2017-04-08T02:14:31.722Z,21.4
2017-04-08T02:15:39.818Z,21.4
2017-04-08T02:16:47.904Z,21.5
2017-04-08T02:17:55.990Z,21.4
2017-04-08T02:19:04.075Z,21.4
2017-04-08T02:20:12.162Z,21.4
2017-04-08T02:21:20.253Z,21.5
2017-04-08T02:22:28.336Z,21.4
2017-04-08T02:23:36.426Z,21.4
2017-04-08T02:24:44.512Z,21.4
2017-04-08T02:25:52.597Z,21.4
2017-04-08T02:27:00.682Z,21.4
2017-04-08T02:28:08.771Z,21.4
2017-04-08T02:29:16.859Z,21.4
2017-04-08T02:30:24.943Z,21.4
2017-04-08T02:31:33.041Z,21.4
2017-04-08T02:32:41.133Z,21.3
2017-04-08T02:33:49.227Z,21.4
2017-04-08T02:34:57.309Z,21.4
2017-04-08T02:36:05.403Z,21.4
2017-04-08T02:37:13.488Z,21.5
2017-04-08T02:38:21.571Z,21.4
2017-04-08T02:39:29.659Z,21.3
2017-04-08T02:40:37.742Z,21.3
2017-04-08T02:41:45.827Z,21.4
2017-04-08T02:42:53.912Z,21.3
2017-04-08T02:44:02.003Z,21.3
2017-04-08T02:45:10.090Z,21.3
2017-04-08T02:46:18.175Z,21.4
2017-04-08T02:47:26.263Z,21.3
2017-04-08T02:48:34.357Z,21.4
2017-04-08T02:49:42.437Z,21.4
2017-04-08T02:50:50.525Z,21.3
2017-04-08T02:51:58.616Z,21.4
2017-04-08T02:53:06.702Z,21.3
2017-04-08T02:54:14.783Z,21.3
2017-04-08T02:55:22.877Z,21.4
2017-04-08T02:56:30.968Z,21.3
2017-04-08T02:57:39.052Z,21.3
2017-04-08T02:58:47.137Z,21.3
2017-04-08T02:59:55.224Z,21.3
2017-04-08T03:01:03.313Z,21.3
2017-04-08T03:02:11.390Z,21.3
2017-04-08T03:03:19.485Z,21.3
2017-04-08T03:04:27.569Z,21.2
2017-04-08T03:05:35.649Z,21.2
2017-04-08T03:06:43.751Z,21.3
2017-04-08T03:07:51.836Z,21.2
2017-04-08T03:08:59.926Z,21.2
2017-04-08T03:10:08.011Z,21.3
2017-04-08T03:11:16.097Z,21.2
2017-04-08T03:12:24.187Z,21.2
2017-04-08T03:13:32.269Z,21.2
2017-04-08T03:14:40.363Z,21.2
2017-04-08T03:15:48.448Z,21.1
2017-04-08T03:16:56.531Z,21.1
2017-04-08T03:18:04.615Z,21.1
2017-04-08T03:19:12.707Z,21.1
2017-04-08T03:20:20.793Z,21.2
2017-04-08T03:21:28.881Z,21.2
2017-04-08T03:22:36.969Z,21.1
2017-04-08T03:23:45.052Z,21.2
2017-04-08T03:24:53.135Z,21.1
2017-04-08T03:26:01.221Z,21.1
2017-04-08T03:27:09.313Z,21.1
2017-04-08T03:28:17.399Z,21.1
2017-04-08T03:29:25.482Z,21.0
2017-04-08T03:30:33.578Z,21.0
2017-04-08T03:31:41.663Z,21.1
2017-04-08T03:32:49.753Z,21.0
2017-04-08T03:33:57.835Z,21.1
2017-04-08T03:35:05.927Z,21.1
2017-04-08T03:36:14.009Z,21.1
2017-04-08T03:37:22.094Z,21.1
2017-04-08T03:38:30.182Z,21.0
2017-04-08T03:39:38.265Z,21.1
2017-04-08T03:40:46.352Z,21.0
2017-04-08T03:41:54.444Z,21.0
2017-04-08T03:43:02.536Z,21.0
2017-04-08T03:44:10.624Z,21.0
2017-04-08T03:45:18.709Z,21.0
2017-04-08T03:46:26.793Z,21.0
2017-04-08T03:47:34.879Z,20.9
2017-04-08T03:48:42.964Z,20.9
2017-04-08T03:49:51.054Z,20.9
2017-04-08T03:50:59.149Z,20.9
2017-04-08T03:52:07.244Z,20.9
2017-04-08T03:53:15.322Z,20.9
2017-04-08T03:54:23.410Z,21.0
2017-04-08T03:55:31.494Z,20.9
2017-04-08T03:56:39.660Z,20.9
2017-04-08T03:57:47.662Z,20.9
2017-04-08T03:58:55.753Z,20.9
2017-04-08T04:00:03.838Z,20.9
2017-04-08T04:01:11.920Z,20.9
2017-04-08T04:02:20.010Z,20.9
2017-04-08T04:03:28.096Z,20.9
2017-04-08T04:04:36.178Z,20.8
2017-04-08T04:05:44.269Z,20.8
2017-04-08T04:06:52.353Z,20.9
2017-04-08T04:08:00.436Z,20.8
2017-04-08T04:09:08.517Z,20.8
2017-04-08T04:10:16.609Z,20.8
2017-04-08T04:11:24.693Z,20.8
2017-04-08T04:12:32.774Z,20.8
2017-04-08T04:13:40.932Z,20.8
2017-04-08T04:14:48.951Z,20.9
2017-04-08T04:15:57.070Z,20.7
2017-04-08T04:17:05.122Z,20.7
2017-04-08T04:18:13.210Z,20.8
2017-04-08T04:19:21.297Z,20.7
2017-04-08T04:20:29.384Z,20.7
2017-04-08T04:21:37.468Z,20.6
2017-04-08T04:22:45.554Z,20.7
2017-04-08T04:23:53.635Z,20.7
2017-04-08T04:25:01.723Z,20.7
2017-04-08T04:26:09.809Z,20.7
2017-04-08T04:27:17.896Z,20.7
2017-04-08T04:28:25.978Z,20.7
2017-04-08T04:29:34.067Z,20.7
2017-04-08T04:30:42.239Z,20.7
2017-04-08T04:31:50.237Z,20.7
2017-04-08T04:32:58.319Z,20.6
2017-04-08T04:34:06.407Z,20.6
2017-04-08T04:35:14.492Z,20.6
2017-04-08T04:36:22.578Z,20.6
2017-04-08T04:37:30.665Z,20.6
2017-04-08T04:38:38.749Z,20.5
2017-04-08T04:39:46.837Z,20.5
2017-04-08T04:40:54.919Z,20.5
2017-04-08T04:42:03.004Z,20.6
2017-04-08T04:43:11.090Z,20.5
2017-04-08T04:44:19.176Z,20.5
2017-04-08T04:45:27.261Z,20.5
2017-04-08T04:46:35.347Z,20.5
2017-04-08T04:47:43.430Z,20.5
2017-04-08T04:48:51.516Z,20.4
2017-04-08T04:49:59.603Z,20.5
2017-04-08T04:51:07.684Z,20.5
2017-04-08T04:52:15.771Z,20.5
2017-04-08T04:53:23.858Z,20.5
2017-04-08T04:54:31.943Z,20.3
2017-04-08T04:55:40.029Z,20.5
2017-04-08T04:56:48.110Z,20.5
2017-04-08T04:57:56.199Z,20.4
2017-04-08T04:59:04.284Z,20.5
2017-04-08T05:00:12.367Z,20.4
2017-04-08T05:01:20.455Z,20.4
2017-04-08T05:02:28.542Z,20.5
2017-04-08T05:03:36.627Z,20.5
2017-04-08T05:04:44.708Z,20.4
2017-04-08T05:05:52.808Z,20.3
2017-04-08T05:07:00.879Z,20.4
2017-04-08T05:08:08.961Z,20.3
2017-04-08T05:09:17.049Z,20.4
2017-04-08T05:10:25.141Z,20.3
2017-04-08T05:11:33.218Z,20.4
2017-04-08T05:12:41.307Z,20.4
2017-04-08T05:13:49.392Z,20.3
2017-04-08T05:14:57.475Z,20.3
2017-04-08T05:16:05.558Z,20.3
2017-04-08T05:17:13.645Z,20.3
2017-04-08T05:18:21.731Z,20.3
2017-04-08T05:19:29.814Z,20.3
2017-04-08T05:20:37.900Z,20.3
2017-04-08T05:21:45.983Z,20.3
2017-04-08T05:22:54.069Z,20.3
2017-04-08T05:24:02.149Z,20.3
2017-04-08T05:25:10.248Z,20.2
2017-04-08T05:26:18.327Z,20.2
2017-04-08T05:27:26.410Z,20.2
2017-04-08T05:28:34.500Z,20.2
2017-04-08T05:29:42.585Z,20.2
2017-04-08T05:30:50.666Z,20.2
2017-04-08T05:31:58.749Z,20.2
2017-04-08T05:33:06.840Z,20.2
2017-04-08T05:34:14.923Z,20.2
2017-04-08T05:35:23.010Z,20.2
2017-04-08T05:36:31.096Z,20.2
2017-04-08T05:37:39.182Z,20.1
2017-04-08T05:38:47.268Z,20.1
2017-04-08T05:39:55.349Z,20.1
2017-04-08T05:41:03.439Z,20.1
2017-04-08T05:42:11.527Z,20.1
2017-04-08T05:43:19.605Z,20.1
2017-04-08T05:44:27.697Z,20.1
2017-04-08T05:45:35.778Z,20.1
2017-04-08T05:46:43.868Z,20.1
2017-04-08T05:47:51.957Z,20.1
2017-04-08T05:49:00.038Z,20.0
2017-04-08T05:50:08.115Z,20.1
2017-04-08T05:51:16.199Z,20.1
2017-04-08T05:52:24.288Z,20.1
2017-04-08T05:53:32.373Z,20.0
2017-04-08T05:54:40.459Z,20.0
2017-04-08T05:55:48.542Z,20.0
2017-04-08T05:56:56.629Z,20.0
2017-04-08T05:58:04.710Z,20.0
2017-04-08T05:59:12.796Z,20.0
2017-04-08T06:00:20.882Z,20.0
2017-04-08T06:01:28.970Z,19.9
2017-04-08T06:02:37.047Z,19.9
2017-04-08T06:03:45.134Z,20.0
2017-04-08T06:04:53.223Z,19.9
2017-04-08T06:06:01.307Z,20.0
2017-04-08T06:07:09.392Z,19.9
2017-04-08T06:08:17.478Z,19.9
2017-04-08T06:09:25.572Z,19.9
2017-04-08T06:10:33.650Z,19.9
2017-04-08T06:11:41.736Z,19.9
2017-04-08T06:12:49.819Z,19.9
2017-04-08T06:13:57.894Z,19.9
2017-04-08T06:15:05.999Z,20.0
2017-04-08T06:16:14.068Z,19.9
2017-04-08T06:17:22.152Z,19.8
2017-04-08T06:18:30.236Z,19.9
2017-04-08T06:19:38.323Z,19.9
2017-04-08T06:20:46.408Z,19.9
2017-04-08T06:21:54.491Z,19.9
2017-04-08T06:23:02.571Z,19.9
2017-04-08T06:24:10.664Z,19.8
2017-04-08T06:25:18.749Z,19.9
2017-04-08T06:26:26.832Z,19.8
2017-04-08T06:27:34.933Z,19.8
2017-04-08T06:28:43.003Z,19.9
2017-04-08T06:29:51.155Z,19.9
2017-04-08T06:30:59.169Z,19.8
2017-04-08T06:32:07.257Z,19.8
2017-04-08T06:33:15.344Z,19.7
2017-04-08T06:34:23.427Z,19.8
2017-04-08T06:35:31.514Z,19.8
2017-04-08T06:36:39.602Z,19.7
2017-04-08T06:37:47.682Z,19.7
2017-04-08T06:38:55.767Z,19.7
2017-04-08T06:40:03.855Z,19.7
2017-04-08T06:41:11.947Z,19.7
2017-04-08T06:42:20.029Z,19.8
2017-04-08T06:43:28.117Z,19.8
2017-04-08T06:44:36.201Z,19.8
2017-04-08T06:45:44.287Z,19.8
2017-04-08T06:46:52.365Z,19.7
2017-04-08T06:48:00.453Z,19.8
2017-04-08T06:49:08.544Z,19.8
2017-04-08T06:50:16.630Z,19.7
2017-04-08T06:51:24.718Z,19.7
2017-04-08T06:52:32.804Z,19.7
2017-04-08T06:53:40.928Z,19.7
2017-04-08T06:54:48.967Z,19.7
2017-04-08T06:55:57.053Z,19.7
2017-04-08T06:57:05.138Z,19.7
2017-04-08T06:58:13.220Z,19.7
2017-04-08T06:59:21.306Z,19.7
2017-04-08T07:00:29.393Z,19.7
2017-04-08T07:01:37.473Z,19.7
2017-04-08T07:02:45.557Z,19.7
2017-04-08T07:03:53.646Z,19.7
2017-04-08T07:05:01.726Z,19.7
2017-04-08T07:06:09.813Z,19.7
2017-04-08T07:07:17.908Z,19.7
2017-04-08T07:08:26.098Z,19.7
2017-04-08T07:09:34.074Z,19.7
2017-04-08T07:10:42.192Z,19.7
2017-04-08T07:11:50.244Z,19.7
2017-04-08T07:12:58.324Z,19.7
2017-04-08T07:14:06.410Z,19.7
2017-04-08T07:15:14.499Z,19.7
2017-04-08T07:16:22.582Z,19.6
2017-04-08T07:17:30.661Z,19.7
2017-04-08T07:18:38.750Z,19.7
2017-04-08T07:19:46.833Z,19.6
2017-04-08T07:20:54.988Z,19.7
2017-04-08T07:22:03.000Z,19.6
2017-04-08T07:23:11.088Z,19.6
2017-04-08T07:24:19.173Z,19.6
2017-04-08T07:25:27.256Z,19.7
2017-04-08T07:26:35.342Z,19.7
2017-04-08T07:27:43.439Z,19.6
2017-04-08T07:28:51.509Z,19.7
2017-04-08T07:29:59.592Z,19.7
2017-04-08T07:31:07.678Z,19.6
2017-04-08T07:32:15.763Z,19.8
2017-04-08T07:33:23.895Z,19.7
2017-04-08T07:34:31.931Z,19.7
2017-04-08T07:35:40.017Z,19.7
2017-04-08T07:36:48.101Z,19.6
2017-04-08T07:37:56.187Z,19.7
2017-04-08T07:39:04.279Z,19.7
2017-04-08T07:40:12.358Z,19.7
2017-04-08T07:41:20.438Z,19.6
2017-04-08T07:42:28.923Z,19.7
2017-04-08T07:43:36.607Z,19.7
2017-04-08T07:44:44.697Z,19.7
2017-04-08T07:45:52.776Z,19.6
2017-04-08T07:47:00.867Z,19.6
2017-04-08T07:48:08.954Z,19.7
2017-04-08T07:49:17.263Z,19.5
2017-04-08T07:50:25.193Z,19.6
2017-04-08T07:51:33.208Z,19.7
2017-04-08T07:52:41.701Z,19.7
2017-04-08T07:53:49.372Z,19.6
2017-04-08T07:54:57.459Z,19.6
2017-04-08T07:57:13.626Z,19.6
2017-04-08T07:58:21.712Z,19.6
2017-04-08T07:59:29.796Z,19.6
2017-04-08T08:00:37.876Z,19.6
2017-04-08T08:01:45.961Z,19.6
2017-04-08T08:02:54.055Z,19.6
2017-04-08T08:04:02.143Z,19.6
2017-04-08T08:05:10.222Z,19.6
2017-04-08T08:06:18.311Z,19.6
2017-04-08T08:07:26.453Z,19.5
2017-04-08T08:08:35.025Z,19.5
2017-04-08T08:09:42.558Z,19.5
2017-04-08T08:10:51.053Z,19.5
2017-04-08T08:11:58.731Z,19.6
2017-04-08T08:13:06.812Z,19.5
2017-04-08T08:14:14.945Z,19.5
2017-04-08T08:15:23.365Z,19.5
2017-04-08T08:16:31.261Z,19.5
2017-04-08T08:17:39.154Z,19.5
2017-04-08T08:18:47.238Z,19.6
2017-04-08T08:19:55.338Z,19.6
2017-04-08T08:21:03.410Z,19.6
2017-04-08T08:22:11.500Z,19.6
2017-04-08T08:23:19.592Z,19.6
2017-04-08T08:24:27.666Z,19.6
2017-04-08T08:25:35.753Z,19.4
2017-04-08T08:26:43.843Z,19.4
2017-04-08T08:27:51.918Z,19.2
2017-04-08T08:29:00.003Z,19.3
2017-04-08T08:30:08.089Z,19.1
2017-04-08T08:31:16.175Z,19.1
2017-04-08T08:32:24.258Z,19.1
2017-04-08T08:33:32.340Z,19.0
2017-04-08T08:34:40.428Z,19.1
2017-04-08T08:35:48.512Z,19.1
2017-04-08T08:36:56.593Z,19.1
2017-04-08T08:38:04.682Z,19.0
2017-04-08T08:39:12.769Z,19.1
2017-04-08T08:40:20.851Z,19.1
2017-04-08T08:41:28.938Z,19.0
2017-04-08T08:42:37.024Z,19.0
2017-04-08T08:43:45.108Z,19.1
2017-04-08T08:44:53.183Z,19.0
2017-04-08T08:46:01.270Z,19.0
2017-04-08T08:47:09.357Z,19.1
2017-04-08T08:48:17.443Z,19.1
2017-04-08T08:49:25.522Z,19.1
2017-04-08T08:50:33.605Z,19.1
2017-04-08T08:51:41.686Z,19.1
2017-04-08T08:52:49.771Z,19.0
2017-04-08T08:53:57.857Z,18.9
2017-04-08T08:55:05.940Z,18.8
2017-04-08T08:56:14.025Z,18.8
2017-04-08T08:57:22.110Z,18.9
2017-04-08T08:58:30.198Z,19.0
2017-04-08T08:59:38.272Z,18.9
2017-04-08T09:00:46.358Z,18.9
2017-04-08T09:01:54.447Z,18.9
2017-04-08T09:03:02.527Z,18.8
2017-04-08T09:04:10.612Z,18.8
2017-04-08T09:05:18.699Z,18.8
2017-04-08T09:06:26.783Z,18.8
2017-04-08T09:07:34.864Z,18.8
2017-04-08T09:08:42.948Z,18.8
2017-04-08T09:09:51.035Z,18.8
2017-04-08T09:10:59.114Z,18.7
2017-04-08T09:12:07.196Z,18.9
2017-04-08T09:13:15.286Z,18.8
2017-04-08T09:14:23.366Z,18.8
2017-04-08T09:15:31.449Z,18.7
2017-04-08T09:16:39.535Z,18.7
2017-04-08T09:17:47.629Z,18.7
2017-04-08T09:18:55.709Z,18.7
2017-04-08T09:20:03.783Z,18.7
2017-04-08T09:21:11.869Z,18.8
2017-04-08T09:22:19.953Z,18.9
2017-04-08T09:23:28.030Z,18.8
2017-04-08T09:24:36.120Z,18.8
2017-04-08T09:25:44.222Z,18.8
2017-04-08T09:26:52.287Z,18.8
2017-04-08T09:28:00.368Z,18.8
2017-04-08T09:29:08.457Z,18.7
2017-04-08T09:30:16.544Z,18.7
2017-04-08T09:31:24.625Z,18.8
2017-04-08T09:32:32.708Z,18.7
2017-04-08T09:33:40.788Z,18.8
2017-04-08T09:34:48.877Z,18.7
2017-04-08T09:35:57.213Z,18.8
2017-04-08T09:37:05.040Z,18.7
2017-04-08T09:38:13.179Z,18.7
2017-04-08T09:39:21.204Z,18.7
2017-04-08T09:40:29.292Z,18.8
2017-04-08T09:41:37.404Z,18.7
2017-04-08T09:42:45.464Z,18.7
2017-04-08T09:43:53.564Z,18.7
2017-04-08T09:45:01.631Z,18.6
2017-04-08T09:46:09.715Z,18.7
2017-04-08T09:47:17.794Z,18.7
2017-04-08T09:48:25.885Z,18.7
2017-04-08T09:49:33.970Z,18.5
2017-04-08T09:50:42.050Z,18.6
2017-04-08T09:51:50.131Z,18.6
2017-04-08T09:52:58.228Z,18.6
2017-04-08T09:54:06.308Z,18.6
2017-04-08T09:55:14.384Z,18.6
2017-04-08T09:56:22.469Z,18.6
2017-04-08T09:57:30.555Z,18.6
2017-04-08T09:58:38.642Z,18.6
2017-04-08T09:59:46.721Z,18.7
2017-04-08T10:00:54.807Z,18.6
2017-04-08T10:02:02.888Z,18.6
2017-04-08T10:03:10.974Z,18.6
2017-04-08T10:04:19.058Z,18.6
2017-04-08T10:05:27.138Z,18.5
2017-04-08T10:06:35.320Z,18.5
2017-04-08T10:07:43.311Z,18.5
2017-04-08T10:08:51.401Z,18.5
2017-04-08T10:09:59.483Z,18.6
2017-04-08T10:11:07.565Z,18.7
2017-04-08T10:12:15.650Z,18.7
2017-04-08T10:13:23.740Z,18.7
2017-04-08T10:14:31.819Z,18.7
2017-04-08T10:15:39.906Z,18.7
2017-04-08T10:16:47.990Z,18.7
2017-04-08T10:17:56.079Z,18.7
2017-04-08T10:19:04.158Z,18.7
2017-04-08T10:20:12.243Z,18.7
2017-04-08T10:21:20.325Z,18.7
2017-04-08T10:22:28.407Z,18.7
2017-04-08T10:23:36.543Z,18.7
2017-04-08T10:24:44.579Z,18.6
2017-04-08T10:25:52.659Z,18.6
2017-04-08T10:27:00.739Z,18.6
2017-04-08T10:28:08.826Z,18.6
2017-04-08T10:29:16.922Z,18.6
2017-04-08T10:30:24.995Z,18.6
2017-04-08T10:31:33.086Z,18.6
2017-04-08T10:32:41.173Z,18.6
2017-04-08T10:33:49.263Z,18.7
2017-04-08T10:34:57.339Z,18.6
2017-04-08T10:36:05.424Z,18.7
2017-04-08T10:37:13.509Z,18.7
2017-04-08T10:38:21.588Z,18.6
2017-04-08T10:39:29.673Z,18.7
2017-04-08T10:40:37.761Z,18.7
2017-04-08T10:41:45.845Z,18.7
2017-04-08T10:42:53.928Z,18.7
2017-04-08T10:44:02.017Z,18.7
2017-04-08T10:45:10.096Z,18.8
2017-04-08T10:46:18.177Z,18.7
2017-04-08T10:47:26.262Z,18.7
2017-04-08T10:48:34.345Z,18.7
2017-04-08T10:49:42.426Z,18.7
2017-04-08T10:50:50.512Z,18.7
2017-04-08T10:51:58.599Z,18.7
2017-04-08T10:53:06.684Z,18.7
2017-04-08T10:54:14.762Z,18.7
2017-04-08T10:55:22.851Z,18.6
2017-04-08T10:56:30.933Z,18.7
2017-04-08T10:57:39.019Z,18.8
2017-04-08T10:58:47.096Z,18.7
2017-04-08T10:59:55.185Z,18.7
2017-04-08T11:01:03.263Z,18.8
2017-04-08T11:02:11.352Z,18.7
2017-04-08T11:03:19.438Z,18.7
2017-04-08T11:04:27.522Z,18.7
2017-04-08T11:05:35.608Z,18.7
2017-04-08T11:06:43.688Z,18.7
2017-04-08T11:07:51.775Z,18.7
2017-04-08T11:08:59.858Z,18.7
2017-04-08T11:10:07.939Z,18.7
2017-04-08T11:11:16.024Z,18.7
2017-04-08T11:12:24.108Z,18.7
2017-04-08T11:13:32.187Z,18.7
2017-04-08T11:14:40.276Z,18.6
2017-04-08T11:15:48.369Z,18.7
2017-04-08T11:16:56.450Z,18.7
2017-04-08T11:18:04.532Z,18.7
2017-04-08T11:19:12.619Z,18.7
2017-04-08T11:20:20.702Z,18.7
2017-04-08T11:21:28.789Z,18.7
2017-04-08T11:22:36.873Z,18.7
2017-04-08T11:23:44.955Z,18.6
2017-04-08T11:24:53.037Z,18.7
2017-04-08T11:26:01.128Z,18.7
2017-04-08T11:27:09.258Z,18.7
2017-04-08T11:28:17.317Z,18.7
2017-04-08T11:29:25.377Z,18.7
2017-04-08T11:30:33.463Z,18.7
2017-04-08T11:31:41.546Z,18.7
2017-04-08T11:32:49.629Z,18.7
2017-04-08T11:33:57.709Z,18.7
2017-04-08T11:35:05.797Z,18.7
2017-04-08T11:36:13.882Z,18.7
2017-04-08T11:37:22.309Z,18.7
2017-04-08T11:38:30.047Z,18.8
2017-04-08T11:39:38.137Z,18.7
2017-04-08T11:40:46.216Z,18.8
2017-04-08T11:41:54.298Z,18.8
2017-04-08T11:43:02.380Z,18.7
2017-04-08T11:44:10.538Z,18.7
2017-04-08T11:45:18.551Z,18.8
2017-04-08T11:46:26.636Z,18.8
2017-04-08T11:47:34.727Z,18.8
2017-04-08T11:48:42.811Z,18.8
2017-04-08T11:49:50.893Z,18.8
2017-04-08T11:50:58.982Z,18.8
2017-04-08T11:52:07.070Z,18.8
2017-04-08T11:53:15.156Z,18.8
2017-04-08T11:54:23.236Z,18.7
2017-04-08T11:55:31.319Z,18.8
2017-04-08T11:56:39.408Z,18.8
2017-04-08T11:57:47.487Z,18.7
2017-04-08T11:58:55.576Z,18.8
2017-04-08T12:00:03.663Z,18.8
2017-04-08T12:01:11.779Z,18.8
2017-04-08T12:02:19.826Z,18.8
2017-04-08T12:03:27.910Z,18.8
2017-04-08T12:04:35.996Z,18.9
2017-04-08T12:05:44.074Z,18.9
2017-04-08T12:06:52.168Z,18.9
2017-04-08T12:08:00.255Z,18.9
2017-04-08T12:09:08.335Z,18.9
2017-04-08T12:10:16.425Z,18.9
2017-04-08T12:11:24.515Z,18.9
2017-04-08T12:12:32.597Z,19.0
2017-04-08T12:13:40.680Z,18.9
2017-04-08T12:14:48.772Z,18.9
2017-04-08T12:15:56.856Z,18.9
2017-04-08T12:17:04.943Z,18.9
2017-04-08T12:18:13.042Z,19.0
2017-04-08T12:19:21.109Z,19.0
2017-04-08T12:20:29.195Z,19.0
2017-04-08T12:21:37.278Z,18.9
2017-04-08T12:22:45.364Z,18.9
2017-04-08T12:23:53.444Z,18.9
2017-04-08T12:25:01.541Z,19.0
2017-04-08T12:26:09.630Z,19.0
2017-04-08T12:27:17.712Z,18.9
2017-04-08T12:28:25.804Z,18.9
2017-04-08T12:29:33.899Z,18.9
2017-04-08T12:30:41.985Z,18.9
2017-04-08T12:31:50.068Z,19.0
2017-04-08T12:32:58.148Z,18.9
2017-04-08T12:34:06.234Z,19.0
2017-04-08T12:35:14.320Z,19.0
2017-04-08T12:36:22.401Z,18.9
2017-04-08T12:37:30.490Z,19.0
2017-04-08T12:38:38.573Z,18.9
2017-04-08T12:39:46.656Z,19.0
2017-04-08T12:40:54.738Z,18.9
2017-04-08T12:42:02.826Z,18.9
2017-04-08T12:43:10.912Z,18.9
2017-04-08T12:44:18.999Z,18.8
2017-04-08T12:45:27.085Z,18.8
2017-04-08T12:46:35.168Z,19.0
2017-04-08T12:47:43.249Z,18.9
2017-04-08T12:48:51.334Z,18.9
2017-04-08T12:49:59.428Z,18.9
2017-04-08T12:51:07.519Z,18.9
2017-04-08T12:52:15.675Z,19.0
2017-04-08T12:53:23.686Z,18.8
2017-04-08T12:54:31.774Z,18.8
2017-04-08T12:55:39.855Z,19.0
2017-04-08T12:56:47.938Z,19.0
2017-04-08T12:57:56.029Z,18.9
2017-04-08T12:59:04.120Z,19.0
2017-04-08T13:00:12.203Z,18.9
2017-04-08T13:01:20.289Z,18.9
2017-04-08T13:02:28.373Z,18.9
2017-04-08T13:03:36.459Z,18.9
2017-04-08T13:04:44.542Z,18.9
2017-04-08T13:05:52.631Z,18.9
2017-04-08T13:07:00.722Z,19.0
2017-04-08T13:08:08.797Z,18.9
2017-04-08T13:09:16.884Z,19.0
2017-04-08T13:10:24.967Z,19.0
2017-04-08T13:11:33.047Z,18.9
2017-04-08T13:12:41.135Z,19.0
2017-04-08T13:13:49.219Z,19.0
2017-04-08T13:14:57.302Z,18.9
2017-04-08T13:16:05.386Z,19.0
2017-04-08T13:17:13.475Z,19.0
2017-04-08T13:18:21.559Z,18.9
2017-04-08T13:19:29.646Z,18.9
2017-04-08T13:20:37.731Z,19.0
2017-04-08T13:21:45.814Z,18.9
2017-04-08T13:22:53.899Z,19.0
2017-04-08T13:24:01.975Z,18.9
2017-04-08T13:25:10.069Z,18.9
2017-04-08T13:26:18.147Z,19.0
2017-04-08T13:27:26.231Z,19.0
2017-04-08T13:28:34.320Z,19.0
2017-04-08T13:29:42.402Z,18.9
2017-04-08T13:30:50.485Z,19.0
2017-04-08T13:31:58.566Z,19.0
2017-04-08T13:33:06.657Z,18.9
2017-04-08T13:34:14.741Z,19.0
2017-04-08T13:35:22.818Z,18.9
2017-04-08T13:36:30.908Z,18.9
2017-04-08T13:37:38.991Z,18.9
2017-04-08T13:38:47.074Z,18.9
2017-04-08T13:39:55.157Z,18.9
2017-04-08T13:41:03.246Z,19.1
2017-04-08T13:42:11.328Z,19.0
2017-04-08T13:43:19.418Z,19.1
2017-04-08T13:44:27.501Z,19.1
2017-04-08T13:45:35.583Z,19.1
2017-04-08T13:46:43.669Z,19.1
2017-04-08T13:47:51.748Z,19.1
2017-04-08T13:48:59.838Z,19.1
2017-04-08T13:50:07.918Z,19.1
2017-04-08T13:51:16.002Z,19.1
2017-04-08T13:52:24.090Z,19.1
2017-04-08T13:53:32.173Z,19.1
2017-04-08T13:54:40.257Z,19.1
2017-04-08T13:55:48.339Z,19.1
2017-04-08T13:56:56.422Z,19.1
2017-04-08T13:58:04.511Z,19.1
2017-04-08T13:59:12.595Z,19.1
2017-04-08T14:00:20.683Z,19.1
2017-04-08T14:01:28.765Z,19.1
2017-04-08T14:02:36.847Z,19.1
2017-04-08T14:03:44.933Z,19.1
2017-04-08T14:04:53.019Z,19.1
2017-04-08T14:06:01.105Z,19.2
2017-04-08T14:07:09.183Z,19.2
2017-04-08T14:08:17.273Z,19.1
2017-04-08T14:09:25.354Z,19.2
2017-04-08T14:10:33.439Z,19.2
2017-04-08T14:11:41.523Z,19.2
2017-04-08T14:12:49.611Z,19.2
2017-04-08T14:13:57.693Z,19.2
2017-04-08T14:15:05.784Z,19.2
2017-04-08T14:16:13.864Z,19.2
2017-04-08T14:17:21.952Z,19.2
2017-04-08T14:18:30.046Z,19.2
2017-04-08T14:19:38.136Z,19.2
2017-04-08T14:20:46.222Z,19.3
2017-04-08T14:21:54.308Z,19.3
2017-04-08T14:23:02.388Z,19.3
2017-04-08T14:24:10.476Z,19.3
2017-04-08T14:25:18.564Z,19.3
2017-04-08T14:26:26.643Z,19.3
2017-04-08T14:27:34.729Z,19.2
2017-04-08T14:28:42.820Z,19.3
2017-04-08T14:29:50.901Z,19.3
2017-04-08T14:30:58.981Z,19.3
2017-04-08T14:32:07.069Z,19.3
2017-04-08T14:33:15.157Z,19.4
2017-04-08T14:34:23.239Z,19.4
2017-04-08T14:35:31.324Z,19.4
2017-04-08T14:36:39.408Z,19.4
2017-04-08T14:37:47.490Z,19.4
2017-04-08T14:38:55.572Z,19.4
2017-04-08T14:40:03.659Z,19.4
2017-04-08T14:41:11.743Z,19.4
2017-04-08T14:42:19.828Z,19.4
2017-04-08T14:43:27.914Z,19.4
2017-04-08T14:44:35.999Z,19.3
2017-04-08T14:45:44.082Z,19.4
2017-04-08T14:46:52.166Z,19.5
2017-04-08T14:48:00.255Z,19.4
2017-04-08T14:49:08.336Z,19.4
2017-04-08T14:50:16.419Z,19.4
2017-04-08T14:51:24.506Z,19.5
2017-04-08T14:52:32.593Z,19.4
2017-04-08T14:53:40.677Z,19.4
2017-04-08T14:54:48.759Z,19.4
2017-04-08T14:55:56.872Z,19.4
2017-04-08T14:57:04.936Z,19.5
2017-04-08T14:58:13.017Z,19.4
2017-04-08T14:59:21.105Z,19.5
2017-04-08T15:00:29.199Z,19.5
2017-04-08T15:01:37.287Z,19.6
2017-04-08T15:02:45.371Z,19.4
2017-04-08T15:03:53.534Z,19.4
2017-04-08T15:05:01.540Z,19.5
2017-04-08T15:06:09.626Z,19.4
2017-04-08T15:07:17.716Z,19.6